createdAt,value
2019-01-17T00:02:09.249Z,7.20
2019-01-17T00:05:07.550Z,7.10
2019-01-17T00:08:01.641Z,7.00
2019-01-17T00:10:52.358Z,6.90
2019-01-17T00:13:41.410Z,6.70
2019-01-17T00:16:26.626Z,6.70
2019-01-17T00:19:09.970Z,6.70
2019-01-17T00:22:08.597Z,6.70
2019-01-17T00:25:11.212Z,6.80
2019-01-17T00:28:03.839Z,6.80
2019-01-17T00:30:51.951Z,6.80
2019-01-17T00:33:44.031Z,6.80
2019-01-17T00:36:36.949Z,6.80
2019-01-17T00:39:26.744Z,6.70
2019-01-17T00:42:16.655Z,6.70
2019-01-17T00:45:08.738Z,6.60
2019-01-17T00:48:02.036Z,6.50
2019-01-17T00:50:56.783Z,6.40
2019-01-17T00:53:57.033Z,6.30
2019-01-17T00:56:51.726Z,6.30
2019-01-17T00:59:34.606Z,6.20
2019-01-17T01:02:22.543Z,6.20
2019-01-17T01:05:08.264Z,6.30
2019-01-17T01:08:11.846Z,6.30
2019-01-17T01:11:12.972Z,6.30
2019-01-17T01:14:00.990Z,6.30
2019-01-17T01:17:11.351Z,6.30
2019-01-17T01:19:58.521Z,6.30
2019-01-17T01:22:47.495Z,6.30
2019-01-17T01:25:34.899Z,6.20
2019-01-17T01:28:33.455Z,6.20
2019-01-17T01:31:30.048Z,6.20
2019-01-17T01:34:22.724Z,6.20
2019-01-17T01:37:11.790Z,6.20
2019-01-17T01:40:03.531Z,6.20
2019-01-17T01:42:50.463Z,6.20
2019-01-17T01:45:48.341Z,6.20
2019-01-17T01:48:43.011Z,6.20
2019-01-17T01:51:44.064Z,6.20
2019-01-17T01:54:22.129Z,6.20
2019-01-17T01:56:50.382Z,6.20
2019-01-17T01:59:20.250Z,6.20
2019-01-17T02:01:50.193Z,6.20
2019-01-17T02:04:20.982Z,6.20
2019-01-17T02:06:51.629Z,6.20
2019-01-17T02:09:24.210Z,6.10
2019-01-17T02:12:02.360Z,6.10
2019-01-17T02:14:32.994Z,6.10
2019-01-17T02:17:03.517Z,6.00
2019-01-17T02:19:33.651Z,6.00
2019-01-17T02:22:03.538Z,6.00
2019-01-17T02:24:33.312Z,6.00
2019-01-17T02:27:03.701Z,6.00
2019-01-17T02:29:33.463Z,6.00
2019-01-17T02:32:03.280Z,6.00
2019-01-17T02:34:33.099Z,6.00
2019-01-17T02:37:03.316Z,6.00
2019-01-17T02:39:33.179Z,6.00
2019-01-17T02:42:02.955Z,6.00
2019-01-17T02:44:33.164Z,6.00
2019-01-17T02:47:02.847Z,5.90
2019-01-17T02:49:32.684Z,5.90
2019-01-17T02:52:02.832Z,5.90
2019-01-17T02:54:35.852Z,5.90
2019-01-17T02:57:05.114Z,5.90
2019-01-17T02:59:35.042Z,5.90
2019-01-17T03:02:05.202Z,5.90
2019-01-17T03:04:35.100Z,5.90
2019-01-17T03:07:05.131Z,5.90
2019-01-17T03:09:35.394Z,6.00
2019-01-17T03:12:05.579Z,6.00
2019-01-17T03:14:35.483Z,6.00
2019-01-17T03:17:05.395Z,6.00
2019-01-17T03:19:34.972Z,5.90
2019-01-17T03:22:05.424Z,5.90
2019-01-17T03:24:35.240Z,5.90
2019-01-17T03:27:05.865Z,5.90
2019-01-17T03:29:35.818Z,5.90
2019-01-17T03:32:05.608Z,5.80
2019-01-17T03:34:36.186Z,5.80
2019-01-17T03:37:06.364Z,5.80
2019-01-17T03:39:37.825Z,5.80
2019-01-17T03:42:07.487Z,5.80
2019-01-17T03:44:37.227Z,5.90
2019-01-17T03:47:10.602Z,5.80
2019-01-17T03:49:40.595Z,5.90
2019-01-17T03:52:10.633Z,5.90
2019-01-17T03:54:42.195Z,6.00
2019-01-17T03:57:11.821Z,6.00
2019-01-17T03:59:41.714Z,6.00
2019-01-17T04:02:11.610Z,6.10
2019-01-17T04:04:41.330Z,6.10
2019-01-17T04:07:11.171Z,6.20
2019-01-17T04:09:40.880Z,6.20
2019-01-17T04:12:15.630Z,6.20
2019-01-17T04:14:48.094Z,6.20
2019-01-17T04:17:18.042Z,6.20
2019-01-17T04:19:47.904Z,6.20
2019-01-17T04:22:17.777Z,6.30
2019-01-17T04:24:47.671Z,6.30
2019-01-17T04:27:17.442Z,6.30
2019-01-17T04:29:47.646Z,6.30
2019-01-17T04:32:17.579Z,6.40
2019-01-17T04:34:47.323Z,6.40
2019-01-17T04:37:17.010Z,6.30
2019-01-17T04:39:46.926Z,6.30
2019-01-17T04:42:18.117Z,6.20
2019-01-17T04:44:47.783Z,6.20
2019-01-17T04:47:17.523Z,6.30
2019-01-17T04:49:47.653Z,6.30
2019-01-17T04:52:17.632Z,6.30
2019-01-17T04:54:48.089Z,6.30
2019-01-17T04:57:18.222Z,6.30
2019-01-17T04:59:48.063Z,6.30
2019-01-17T05:02:17.999Z,6.40
2019-01-17T05:04:48.315Z,6.40
2019-01-17T05:07:18.648Z,6.40
2019-01-17T05:09:48.521Z,6.50
2019-01-17T05:12:18.922Z,6.50
2019-01-17T05:14:49.364Z,6.50
2019-01-17T05:17:19.455Z,6.50
2019-01-17T05:19:49.484Z,6.50
2019-01-17T05:22:19.713Z,6.40
2019-01-17T05:24:49.966Z,6.40
2019-01-17T05:27:19.995Z,6.40
2019-01-17T05:29:50.131Z,6.40
2019-01-17T05:32:20.325Z,6.40
2019-01-17T05:34:50.873Z,6.40
2019-01-17T05:37:23.186Z,6.40
2019-01-17T05:39:53.397Z,6.40
2019-01-17T05:42:23.812Z,6.40
2019-01-17T05:44:53.812Z,6.30
2019-01-17T05:47:23.800Z,6.30
2019-01-17T05:49:53.742Z,6.20
2019-01-17T05:52:23.987Z,6.20
2019-01-17T05:54:56.284Z,6.20
2019-01-17T05:57:25.923Z,6.10
2019-01-17T05:59:55.615Z,6.00
2019-01-17T06:02:27.142Z,6.00
2019-01-17T06:04:57.168Z,6.00
2019-01-17T06:07:29.933Z,5.90
2019-01-17T06:09:59.817Z,5.80
2019-01-17T06:12:29.529Z,5.90
2019-01-17T06:14:59.426Z,5.90
2019-01-17T06:17:29.159Z,5.80
2019-01-17T06:19:59.940Z,5.90
2019-01-17T06:22:35.852Z,5.90
2019-01-17T06:25:08.890Z,6.00
2019-01-17T06:27:44.486Z,6.00
2019-01-17T06:30:17.154Z,6.00
2019-01-17T06:32:47.422Z,6.00
2019-01-17T06:35:17.792Z,6.00
2019-01-17T06:37:49.861Z,6.00
2019-01-17T06:40:22.804Z,6.00
2019-01-17T06:42:52.720Z,6.10
2019-01-17T06:45:22.832Z,6.10
2019-01-17T06:47:53.334Z,6.00
2019-01-17T06:50:23.034Z,6.00
2019-01-17T06:52:54.988Z,6.10
2019-01-17T06:55:24.868Z,6.10
2019-01-17T06:57:55.964Z,6.10
2019-01-17T07:00:28.125Z,6.20
2019-01-17T07:03:01.456Z,6.20
2019-01-17T07:05:31.636Z,6.20
2019-01-17T07:08:08.319Z,6.20
2019-01-17T07:10:38.462Z,6.20
2019-01-17T07:13:08.508Z,6.30
2019-01-17T07:15:38.364Z,6.20
2019-01-17T07:18:08.706Z,6.20
2019-01-17T07:20:38.765Z,6.20
2019-01-17T07:23:08.945Z,6.20
2019-01-17T07:25:41.124Z,6.20
2019-01-17T07:28:10.851Z,6.20
2019-01-17T07:30:40.938Z,6.20
2019-01-17T07:33:10.565Z,6.20
2019-01-17T07:35:40.931Z,6.20
2019-01-17T07:38:10.731Z,6.20
2019-01-17T07:40:41.058Z,6.20
2019-01-17T07:43:13.159Z,6.20
2019-01-17T07:45:45.804Z,6.20
2019-01-17T07:48:15.686Z,6.10
2019-01-17T07:50:46.906Z,6.10
2019-01-17T07:53:16.904Z,6.00
2019-01-17T07:55:47.813Z,6.00
2019-01-17T07:58:17.610Z,5.90
2019-01-17T08:00:47.474Z,6.00
2019-01-17T08:03:17.669Z,6.00
2019-01-17T08:05:47.881Z,6.00
2019-01-17T08:08:18.188Z,6.00
2019-01-17T08:10:48.400Z,6.10
2019-01-17T08:13:21.481Z,6.20
2019-01-17T08:15:51.861Z,6.30
2019-01-17T08:18:22.062Z,6.30
2019-01-17T08:20:52.191Z,6.40
2019-01-17T08:23:22.484Z,6.40
2019-01-17T08:25:54.362Z,6.50
2019-01-17T08:28:23.932Z,6.50
2019-01-17T08:30:54.737Z,6.50
2019-01-17T08:33:24.611Z,6.60
2019-01-17T08:35:54.594Z,6.70
2019-01-17T08:38:24.552Z,6.80
2019-01-17T08:40:54.444Z,6.80
2019-01-17T08:43:29.723Z,6.90
2019-01-17T08:46:05.452Z,6.80
2019-01-17T08:48:44.748Z,6.90
2019-01-17T08:51:24.482Z,6.90
2019-01-17T08:54:08.089Z,7.00
2019-01-17T08:56:30.364Z,7.00
2019-01-17T08:59:00.460Z,7.00
2019-01-17T09:01:31.766Z,7.00
2019-01-17T09:04:22.356Z,7.10
2019-01-17T09:06:57.826Z,7.00
2019-01-17T09:09:32.528Z,7.00
2019-01-17T09:12:03.455Z,7.00
2019-01-17T09:14:33.978Z,7.00
2019-01-17T09:17:04.436Z,7.00
2019-01-17T09:19:35.269Z,7.00
2019-01-17T09:22:08.230Z,7.00
2019-01-17T09:24:38.678Z,7.10
2019-01-17T09:27:09.206Z,7.30
2019-01-17T09:29:39.273Z,7.40
2019-01-17T09:32:10.352Z,7.40
2019-01-17T09:34:40.711Z,7.40
2019-01-17T09:37:12.090Z,7.30
2019-01-17T09:39:49.207Z,7.30
2019-01-17T09:42:20.542Z,7.40
2019-01-17T09:44:50.372Z,7.40
2019-01-17T09:47:20.327Z,7.40
2019-01-17T09:49:55.581Z,7.40
2019-01-17T09:52:36.707Z,7.40
2019-01-17T09:55:14.609Z,7.40
2019-01-17T09:57:45.063Z,7.30
2019-01-17T10:00:24.099Z,7.20
2019-01-17T10:02:54.104Z,7.10
2019-01-17T10:05:24.322Z,7.10
2019-01-17T10:07:55.996Z,7.10
2019-01-17T10:10:29.747Z,7.30
2019-01-17T10:13:00.483Z,7.30
2019-01-17T10:15:57.077Z,7.20
2019-01-17T10:19:01.849Z,7.20
2019-01-17T10:22:12.886Z,7.20
2019-01-17T10:25:10.442Z,7.30
2019-01-17T10:28:27.127Z,7.40
2019-01-17T10:31:34.914Z,7.50
2019-01-17T10:34:35.135Z,7.60
2019-01-17T10:37:28.092Z,7.60
2019-01-17T10:40:44.923Z,7.50
2019-01-17T10:43:46.895Z,7.30
2019-01-17T10:46:59.101Z,7.10
2019-01-17T10:49:54.115Z,6.90
2019-01-17T10:53:23.520Z,6.80
2019-01-17T10:56:41.530Z,6.80
2019-01-17T10:59:26.986Z,6.80
2019-01-17T11:02:44.085Z,6.70
2019-01-17T11:06:01.399Z,6.60
2019-01-17T11:09:10.850Z,6.50
2019-01-17T11:12:21.112Z,6.50
2019-01-17T11:15:20.997Z,6.60
2019-01-17T11:18:09.722Z,6.60
2019-01-17T11:21:22.703Z,6.70
2019-01-17T11:24:28.322Z,6.80
2019-01-17T11:27:52.483Z,6.80
2019-01-17T11:30:44.453Z,6.80
2019-01-17T11:33:58.372Z,6.60
2019-01-17T11:36:59.439Z,6.40
2019-01-17T11:40:05.644Z,6.10
2019-01-17T11:43:02.505Z,6.00
2019-01-17T11:46:13.628Z,6.00
2019-01-17T11:49:34.228Z,6.10
2019-01-17T11:52:35.084Z,6.20
2019-01-17T11:55:33.713Z,6.20
2019-01-17T11:58:26.930Z,6.20
2019-01-17T12:01:11.302Z,6.20
2019-01-17T12:04:15.225Z,6.30
2019-01-17T12:06:47.184Z,6.20
2019-01-17T12:09:24.038Z,6.20
2019-01-17T12:11:57.247Z,6.20
2019-01-17T12:14:30.285Z,6.10
2019-01-17T12:17:02.448Z,6.00
2019-01-17T12:19:37.214Z,5.80
2019-01-17T12:22:07.403Z,5.80
2019-01-17T12:24:37.373Z,5.80
2019-01-17T12:27:10.299Z,5.80
2019-01-17T12:29:40.787Z,5.50
2019-01-17T12:32:14.994Z,5.50
2019-01-17T12:34:46.966Z,5.20
2019-01-17T12:37:17.046Z,5.10
2019-01-17T12:39:49.922Z,4.70
2019-01-17T12:42:20.386Z,4.60
2019-01-17T12:44:50.195Z,4.60
2019-01-17T12:47:20.835Z,4.50
2019-01-17T12:49:55.825Z,4.40
2019-01-17T12:52:27.169Z,4.50
2019-01-17T12:54:57.187Z,4.50
2019-01-17T12:57:29.949Z,4.50
2019-01-17T13:00:00.221Z,4.60
2019-01-17T13:02:30.346Z,4.60
2019-01-17T13:05:01.304Z,4.70
2019-01-17T13:07:33.080Z,4.70
2019-01-17T13:10:03.971Z,4.70
2019-01-17T13:12:38.282Z,4.70
2019-01-17T13:15:12.819Z,4.60
2019-01-17T13:17:43.396Z,4.70
2019-01-17T13:20:16.570Z,4.70
2019-01-17T13:22:46.494Z,4.90
2019-01-17T13:25:22.604Z,4.90
2019-01-17T13:27:52.914Z,4.80
2019-01-17T13:30:27.125Z,4.80
2019-01-17T13:32:57.181Z,4.90
2019-01-17T13:35:28.630Z,4.90
2019-01-17T13:38:02.191Z,4.80
2019-01-17T13:40:34.140Z,4.90
2019-01-17T13:43:04.420Z,4.90
2019-01-17T13:45:34.763Z,4.90
2019-01-17T13:48:05.103Z,4.80
2019-01-17T13:50:34.968Z,4.90
2019-01-17T13:53:08.165Z,4.90
2019-01-17T13:55:42.103Z,4.80
2019-01-17T13:58:12.261Z,4.70
2019-01-17T14:00:42.680Z,4.70
2019-01-17T14:03:20.809Z,4.70
2019-01-17T14:05:58.208Z,4.70
2019-01-17T14:08:28.901Z,4.80
2019-01-17T14:11:04.640Z,4.80
2019-01-17T14:13:38.917Z,4.80
2019-01-17T14:16:09.678Z,4.80
2019-01-17T14:18:41.923Z,4.70
2019-01-17T14:21:13.104Z,4.70
2019-01-17T14:23:48.683Z,4.80
2019-01-17T14:26:22.149Z,4.80
2019-01-17T14:28:52.560Z,4.70
2019-01-17T14:31:22.328Z,4.70
2019-01-17T14:33:52.322Z,4.70
2019-01-17T14:36:22.213Z,4.60
2019-01-17T14:38:58.254Z,4.40
2019-01-17T14:41:28.219Z,4.30
2019-01-17T14:43:58.414Z,4.20
2019-01-17T14:46:31.085Z,4.10
2019-01-17T14:49:07.418Z,4.10
2019-01-17T14:51:37.642Z,4.10
2019-01-17T14:54:08.323Z,4.10
2019-01-17T14:56:39.091Z,4.10
2019-01-17T14:59:09.349Z,4.20
2019-01-17T15:01:39.479Z,4.20
2019-01-17T15:04:09.436Z,4.30
2019-01-17T15:06:44.082Z,4.30
2019-01-17T15:09:13.777Z,4.30
2019-01-17T15:11:44.069Z,4.30
2019-01-17T15:14:17.305Z,4.30
2019-01-17T15:16:48.382Z,4.50
2019-01-17T15:19:21.074Z,4.50
2019-01-17T15:21:56.086Z,4.40
2019-01-17T15:24:25.296Z,4.50
2019-01-17T15:26:55.906Z,4.50
2019-01-17T15:29:28.595Z,4.50
2019-01-17T15:31:58.426Z,4.50
2019-01-17T15:34:30.474Z,4.40
2019-01-17T15:37:00.691Z,4.40
2019-01-17T15:39:30.936Z,4.30
2019-01-17T15:42:03.965Z,4.30
2019-01-17T15:44:36.594Z,4.20
2019-01-17T15:47:13.297Z,4.30
2019-01-17T15:49:46.862Z,4.30
2019-01-17T15:52:23.371Z,4.30
2019-01-17T15:54:53.561Z,4.20
2019-01-17T15:57:33.860Z,4.20
2019-01-17T16:00:16.839Z,4.20
2019-01-17T16:02:54.803Z,4.20
2019-01-17T16:05:27.607Z,4.20
2019-01-17T16:07:58.337Z,4.10
2019-01-17T16:10:29.384Z,4.10
2019-01-17T16:13:16.191Z,4.00
2019-01-17T16:15:46.613Z,4.00
2019-01-17T16:18:16.609Z,4.00
2019-01-17T16:20:54.865Z,4.10
2019-01-17T16:23:27.347Z,4.10
2019-01-17T16:25:58.844Z,4.00
2019-01-17T16:28:32.943Z,4.00
2019-01-17T16:31:06.300Z,4.10
2019-01-17T16:33:36.692Z,4.00
2019-01-17T16:36:06.525Z,4.00
2019-01-17T16:38:36.847Z,3.90
2019-01-17T16:41:09.947Z,3.90
2019-01-17T16:43:50.721Z,3.90
2019-01-17T16:46:26.193Z,3.90
2019-01-17T16:48:56.298Z,3.90
2019-01-17T16:51:30.726Z,3.90
2019-01-17T16:54:04.739Z,3.80
2019-01-17T16:56:40.050Z,3.70
2019-01-17T16:59:10.420Z,3.80
2019-01-17T17:01:42.573Z,3.80
2019-01-17T17:04:20.390Z,3.70
2019-01-17T17:06:59.832Z,3.80
2019-01-17T17:09:31.249Z,3.70
2019-01-17T17:12:04.622Z,3.70
2019-01-17T17:14:34.699Z,3.80
2019-01-17T17:17:10.578Z,3.80
2019-01-17T17:19:50.470Z,3.80
2019-01-17T17:22:20.375Z,3.80
2019-01-17T17:24:50.347Z,3.80
2019-01-17T17:27:20.776Z,3.90
2019-01-17T17:29:52.600Z,3.80
2019-01-17T17:32:26.527Z,3.80
2019-01-17T17:34:57.159Z,3.80
2019-01-17T17:37:27.539Z,3.90
2019-01-17T17:39:58.619Z,3.90
2019-01-17T17:42:28.746Z,4.00
2019-01-17T17:44:58.516Z,4.00
2019-01-17T17:47:28.344Z,4.00
2019-01-17T17:50:00.158Z,4.00
2019-01-17T17:52:32.591Z,3.90
2019-01-17T17:55:07.199Z,4.10
2019-01-17T17:57:40.184Z,4.10
2019-01-17T18:00:34.480Z,3.90
2019-01-17T18:03:07.524Z,3.70
2019-01-17T18:05:39.813Z,3.50
2019-01-17T18:08:09.739Z,3.50
2019-01-17T18:10:52.903Z,3.50
2019-01-17T18:13:20.691Z,3.50
2019-01-17T18:15:56.887Z,3.50
2019-01-17T18:18:42.490Z,3.50
2019-01-17T18:21:38.725Z,3.60
2019-01-17T18:24:10.477Z,3.60
2019-01-17T18:26:41.800Z,3.60
2019-01-17T18:29:13.078Z,3.70
2019-01-17T18:31:53.038Z,3.70
2019-01-17T18:34:24.713Z,3.70
2019-01-17T18:36:54.687Z,3.80
2019-01-17T18:39:26.044Z,3.80
2019-01-17T18:41:56.440Z,3.80
2019-01-17T18:44:28.499Z,3.70
2019-01-17T18:47:08.793Z,3.80
2019-01-17T18:49:46.610Z,3.70
2019-01-17T18:52:21.898Z,3.50
2019-01-17T18:54:55.333Z,3.40
2019-01-17T18:57:28.058Z,3.30
2019-01-17T19:00:00.047Z,3.30
2019-01-17T19:02:47.352Z,3.20
2019-01-17T19:05:17.121Z,3.00
2019-01-17T19:07:49.169Z,2.80
2019-01-17T19:10:22.466Z,2.80
2019-01-17T19:12:56.625Z,2.70
2019-01-17T19:15:44.696Z,2.70
2019-01-17T19:18:17.560Z,2.60
2019-01-17T19:20:49.363Z,2.60
2019-01-17T19:23:22.746Z,2.50
2019-01-17T19:25:56.585Z,2.50
2019-01-17T19:28:28.449Z,2.60
2019-01-17T19:31:02.173Z,2.70
2019-01-17T19:33:42.105Z,2.60
2019-01-17T19:36:18.054Z,2.60
2019-01-17T19:38:51.050Z,2.60
2019-01-17T19:41:22.363Z,2.60
2019-01-17T19:43:57.970Z,2.60
2019-01-17T19:46:30.158Z,2.50
2019-01-17T19:49:05.803Z,2.50
2019-01-17T19:51:36.083Z,2.70
2019-01-17T19:54:13.658Z,2.70
2019-01-17T19:56:44.678Z,2.60
2019-01-17T19:59:19.324Z,2.70
2019-01-17T20:01:49.276Z,2.60
2019-01-17T20:04:28.819Z,2.60
2019-01-17T20:07:00.036Z,2.60
2019-01-17T20:09:43.204Z,2.70
2019-01-17T20:12:25.159Z,2.60
2019-01-17T20:15:08.088Z,2.50
2019-01-17T20:17:38.933Z,2.50
2019-01-17T20:20:15.238Z,2.60
2019-01-17T20:22:45.723Z,2.60
2019-01-17T20:25:16.796Z,2.60
2019-01-17T20:27:48.677Z,2.50
2019-01-17T20:30:24.048Z,2.40
2019-01-17T20:32:54.276Z,2.40
2019-01-17T20:35:25.662Z,2.40
2019-01-17T20:38:00.310Z,2.40
2019-01-17T20:40:30.336Z,2.50
2019-01-17T20:43:07.156Z,2.50
2019-01-17T20:45:37.585Z,2.50
2019-01-17T20:48:08.523Z,2.50
2019-01-17T20:50:40.789Z,2.60
2019-01-17T20:53:11.158Z,2.60
2019-01-17T20:55:42.382Z,2.50
2019-01-17T20:58:19.073Z,2.60
2019-01-17T21:01:31.236Z,2.60
2019-01-17T21:04:13.010Z,2.60
2019-01-17T21:06:43.250Z,2.80
2019-01-17T21:09:21.609Z,2.80
2019-01-17T21:11:55.727Z,2.90
2019-01-17T21:14:30.979Z,2.90
2019-01-17T21:17:09.674Z,3.00
2019-01-17T21:19:40.986Z,3.00
2019-01-17T21:22:13.714Z,3.20
2019-01-17T21:24:48.005Z,3.20
2019-01-17T21:27:18.067Z,3.30
2019-01-17T21:29:56.994Z,3.30
2019-01-17T21:32:27.018Z,3.20
2019-01-17T21:34:57.529Z,3.10
2019-01-17T21:37:28.563Z,3.00
2019-01-17T21:39:58.352Z,3.00
2019-01-17T21:42:29.178Z,3.00
2019-01-17T21:45:07.213Z,2.90
2019-01-17T21:47:41.446Z,2.90
2019-01-17T21:50:20.330Z,2.90
2019-01-17T21:52:51.228Z,3.00
2019-01-17T21:55:21.855Z,3.00
2019-01-17T21:57:57.936Z,3.10
2019-01-17T22:00:41.468Z,3.00
2019-01-17T22:03:17.617Z,3.10
2019-01-17T22:05:54.602Z,3.00
2019-01-17T22:08:25.081Z,2.90
2019-01-17T22:10:55.389Z,2.90
2019-01-17T22:13:25.319Z,3.00
2019-01-17T22:15:55.295Z,3.00
2019-01-17T22:18:25.638Z,3.10
2019-01-17T22:20:55.300Z,2.90
2019-01-17T22:23:25.674Z,2.90
2019-01-17T22:25:58.109Z,2.90
2019-01-17T22:28:29.380Z,2.90
2019-01-17T22:31:06.875Z,2.80
2019-01-17T22:33:53.290Z,2.70
2019-01-17T22:36:41.123Z,2.60
2019-01-17T22:39:25.818Z,2.60
2019-01-17T22:42:02.895Z,2.60
2019-01-17T22:44:38.265Z,2.60
2019-01-17T22:47:22.270Z,2.50
2019-01-17T22:50:04.455Z,2.50
2019-01-17T22:52:42.120Z,2.50
2019-01-17T22:55:11.932Z,2.50
2019-01-17T22:57:41.693Z,2.60
2019-01-17T23:00:51.220Z,2.40
2019-01-17T23:03:23.320Z,2.40
2019-01-17T23:05:54.319Z,2.40
2019-01-17T23:08:25.022Z,2.30
2019-01-17T23:10:58.602Z,2.30
2019-01-17T23:13:29.986Z,2.30
2019-01-17T23:16:00.574Z,2.30
2019-01-17T23:18:31.814Z,2.30
2019-01-17T23:21:02.381Z,2.30
2019-01-17T23:23:32.852Z,2.30
2019-01-17T23:26:03.764Z,2.30
2019-01-17T23:28:33.653Z,2.40
2019-01-17T23:31:03.544Z,2.30
2019-01-17T23:33:33.500Z,2.40
2019-01-17T23:36:04.351Z,2.30
2019-01-17T23:38:35.967Z,2.30
2019-01-17T23:41:06.474Z,2.30
2019-01-17T23:43:38.294Z,2.30
2019-01-17T23:46:07.966Z,2.20
2019-01-17T23:48:42.453Z,2.20
2019-01-17T23:51:16.669Z,2.20
2019-01-17T23:53:47.695Z,2.30
2019-01-17T23:56:19.678Z,2.30
2019-01-17T23:58:51.463Z,3.20
